Terminal Aerodrome Forecast
Issued by NWS Bismarck, ND

Home | Current Version | Previous Version | Graphics & Text | Print | Product List | Glossary On
Versions: 1 2 3 4 5 6 7 8 9 10 11 12 13 14 15
000
FTUS43 KBIS 290700 AAB
TAFISN
TAF AMD
KISN 290759Z 2908/3006 35010KT P6SM BKN090
      TEMPO 2908/2911 30020G30KT 5SM -TSRA OVC050CB
     FM291800 01011KT P6SM SCT250
     FM300300 05009KT P6SM SKC=

USA.gov is the U.S. government's official web portal to all federal, state and local government web resources and services.